Wetterdaten: Woche 06.02.17 - 12.02.17 (KW6)
Datum Zeit Temp. A. Feuchte A. Luftdruck Regen Wind Richtung Taupunkt Windchill Windben
06.02.2017 00:00 2,4 C 84 % 1004,9 hPa 0,0 l/m 0,0 km/h N -0,0 C 2,4 C 0,0 km/h
06.02.2017 01:00 2,0 C 84 % 1005,1 hPa 0,0 l/m 0,0 km/h N -0,4 C 2,0 C 0,0 km/h
06.02.2017 02:00 2,0 C 84 % 1005,3 hPa 0,0 l/m 0,0 km/h N -0,4 C 2,0 C 0,0 km/h
06.02.2017 03:00 2,3 C 84 % 1005,8 hPa 1,3 l/m 0,0 km/h N -0,1 C 2,3 C 0,0 km/h
06.02.2017 04:00 2,6 C 84 % 1006,5 hPa 2,9 l/m 0,0 km/h N 0,2 C 2,6 C 0,0 km/h
06.02.2017 05:00 3,0 C 84 % 1007,3 hPa 3,4 l/m 0,1 km/h N 0,5 C 3,0 C 2,0 km/h
06.02.2017 06:00 3,1 C 83 % 1008,4 hPa 4,4 l/m 0,0 km/h N 0,6 C 3,1 C 2,0 km/h
06.02.2017 07:00 3,1 C 84 % 1009,5 hPa 4,7 l/m 0,0 km/h N 0,6 C 3,1 C 0,4 km/h
06.02.2017 08:00 3,2 C 84 % 1010,3 hPa 1,6 l/m 0,1 km/h N 0,7 C 3,2 C 1,6 km/h
06.02.2017 09:00 3,5 C 84 % 1010,9 hPa 1,0 l/m 0,0 km/h N 1,1 C 3,5 C 1,6 km/h
06.02.2017 10:00 3,9 C 84 % 1011,5 hPa 1,0 l/m 0,1 km/h N 1,4 C 3,9 C 3,2 km/h
06.02.2017 11:00 4,1 C 83 % 1012,2 hPa 0,8 l/m 0,2 km/h N 1,6 C 4,1 C 3,6 km/h
06.02.2017 12:00 3,7 C 84 % 1012,7 hPa 1,0 l/m 1,7 km/h N 1,3 C 3,7 C 7,6 km/h
06.02.2017 13:00 3,2 C 84 % 1013,1 hPa 0,8 l/m 4,3 km/h N 0,8 C 3,2 C 12,5 km/h
06.02.2017 14:00 3,0 C 84 % 1013,7 hPa 0,0 l/m 3,4 km/h N 0,6 C 3,0 C 9,7 km/h
06.02.2017 15:00 3,0 C 84 % 1014,2 hPa 0,0 l/m 2,8 km/h N 0,6 C 3,0 C 10,9 km/h
06.02.2017 16:00 2,6 C 84 % 1014,7 hPa 0,3 l/m 3,0 km/h N 0,2 C 2,6 C 13,3 km/h
06.02.2017 17:00 2,5 C 84 % 1015,3 hPa 0,3 l/m 7,0 km/h N 0,1 C 1,5 C 18,9 km/h
06.02.2017 18:00 2,3 C 84 % 1016,1 hPa 0,3 l/m 5,6 km/h N -0,2 C 1,9 C 15,7 km/h
06.02.2017 19:00 2,1 C 84 % 1016,6 hPa 0,5 l/m 4,3 km/h N -0,3 C 2,1 C 13,3 km/h
06.02.2017 20:00 2,0 C 84 % 1016,9 hPa 0,5 l/m 5,6 km/h N -0,4 C 1,8 C 15,3 km/h
06.02.2017 21:00 2,3 C 84 % 1017,0 hPa 0,0 l/m 5,0 km/h N -0,1 C 2,3 C 15,3 km/h
06.02.2017 22:00 2,3 C 84 % 1017,4 hPa 0,0 l/m 4,6 km/h N -0,1 C 2,3 C 13,3 km/h
06.02.2017 23:00 2,1 C 84 % 1017,5 hPa 0,0 l/m 1,9 km/h N -0,3 C 2,1 C 8,0 km/h
07.02.2017 00:00 2,1 C 84 % 1017,5 hPa 0,0 l/m 1,9 km/h N -0,3 C 2,1 C 8,0 km/h
07.02.2017 01:00 2,1 C 84 % 1017,5 hPa 0,0 l/m 2,4 km/h N -0,3 C 2,1 C 10,5 km/h
07.02.2017 02:00 1,8 C 84 % 1017,6 hPa 0,0 l/m 4,8 km/h N -0,6 C 1,8 C 15,7 km/h
07.02.2017 03:00 1,4 C 84 % 1017,5 hPa 0,0 l/m 5,6 km/h N -1,0 C 1,3 C 14,9 km/h
07.02.2017 04:00 1,3 C 84 % 1017,5 hPa 0,0 l/m 4,2 km/h N -1,1 C 1,3 C 13,3 km/h
07.02.2017 05:00 1,1 C 84 % 1017,6 hPa 0,0 l/m 2,3 km/h N -1,3 C 1,1 C 8,9 km/h
07.02.2017 06:00 1,0 C 84 % 1018,2 hPa 0,0 l/m 2,4 km/h N -1,3 C 1,0 C 9,7 km/h
07.02.2017 07:00 0,9 C 84 % 1018,5 hPa 0,0 l/m 3,4 km/h N -1,5 C 0,9 C 10,9 km/h
07.02.2017 08:00 0,8 C 83 % 1018,8 hPa 0,0 l/m 4,4 km/h N -1,7 C 0,8 C 13,3 km/h
07.02.2017 09:00 1,4 C 82 % 1018,8 hPa 0,0 l/m 5,4 km/h N -1,4 C 0,9 C 15,7 km/h
07.02.2017 10:00 2,4 C 77 % 1018,7 hPa 0,0 l/m 8,1 km/h N -1,2 C 0,8 C 22,1 km/h
07.02.2017 11:00 2,8 C 72 % 1018,6 hPa 0,0 l/m 9,2 km/h N -1,9 C 0,2 C 22,1 km/h
07.02.2017 12:00 3,2 C 70 % 1018,1 hPa 0,0 l/m 8,9 km/h N -1,8 C 1,0 C 20,5 km/h
07.02.2017 13:00 3,7 C 66 % 1017,7 hPa 0,0 l/m 9,8 km/h N -2,0 C 0,8 C 25,2 km/h
07.02.2017 14:00 3,7 C 66 % 1017,5 hPa 0,0 l/m 11,3 km/h N -2,2 C -0,3 C 26,5 km/h
07.02.2017 15:00 3,2 C 66 % 1017,7 hPa 0,0 l/m 10,5 km/h N -2,6 C -0,3 C 27,4 km/h
07.02.2017 16:00 2,6 C 68 % 1018,0 hPa 0,0 l/m 8,1 km/h N -2,8 C 1,2 C 20,9 km/h
07.02.2017 17:00 1,8 C 71 % 1018,4 hPa 0,0 l/m 4,8 km/h N -2,8 C 1,9 C 15,3 km/h
07.02.2017 18:00 1,1 C 74 % 1019,1 hPa 0,0 l/m 2,4 km/h N -3,1 C 1,1 C 9,6 km/h
07.02.2017 19:00 0,6 C 75 % 1019,5 hPa 0,0 l/m 1,6 km/h N -3,3 C 0,6 C 12,9 km/h
07.02.2017 20:00 0,1 C 76 % 1019,8 hPa 0,0 l/m 1,6 km/h N -3,8 C 0,1 C 8,9 km/h
07.02.2017 21:00 -0,7 C 78 % 1020,2 hPa 0,0 l/m 0,0 km/h N -4,1 C -0,7 C 7,2 km/h
07.02.2017 22:00 -1,4 C 79 % 1020,4 hPa 0,0 l/m 0,0 km/h N -4,6 C -1,4 C 1,6 km/h
07.02.2017 23:00 -1,9 C 81 % 1020,5 hPa 0,0 l/m 0,0 km/h N -4,8 C -1,9 C 5,6 km/h
08.02.2017 00:00 -2,2 C 82 % 1020,5 hPa 0,0 l/m 1,6 km/h N -4,9 C -2,2 C 6,4 km/h
08.02.2017 01:00 -2,3 C 82 % 1020,5 hPa 0,0 l/m 1,6 km/h N -5,0 C -2,3 C 7,2 km/h
08.02.2017 02:00 -2,3 C 82 % 1020,6 hPa 0,0 l/m 1,6 km/h N -4,9 C -2,3 C 6,4 km/h
08.02.2017 03:00 -2,3 C 82 % 1020,7 hPa 0,0 l/m 0,8 km/h N -5,0 C -2,3 C 5,6 km/h
08.02.2017 04:00 -1,9 C 82 % 1021,0 hPa 0,0 l/m 1,6 km/h N -4,6 C -1,9 C 6,4 km/h
08.02.2017 05:00 -2,0 C 82 % 1021,3 hPa 0,0 l/m 0,0 km/h N -4,7 C -2,0 C 4,0 km/h
08.02.2017 06:00 -1,6 C 82 % 1021,7 hPa 0,0 l/m 1,6 km/h N -4,3 C -1,6 C 6,4 km/h
08.02.2017 07:00 -1,3 C 81 % 1022,1 hPa 0,0 l/m 1,3 km/h N -4,1 C -1,3 C 8,6 km/h
08.02.2017 08:00 -1,4 C 80 % 1022,9 hPa 0,0 l/m 2,5 km/h N -4,3 C -1,4 C 10,1 km/h
08.02.2017 09:00 -1,4 C 79 % 1023,5 hPa 0,0 l/m 3,8 km/h N -4,5 C -1,4 C 12,5 km/h
08.02.2017 10:00 -1,3 C 78 % 1024,0 hPa 0,0 l/m 6,1 km/h N -4,7 C -1,4 C 16,1 km/h
08.02.2017 11:00 -1,3 C 76 % 1024,4 hPa 0,0 l/m 5,4 km/h N -5,0 C -1,4 C 16,9 km/h
08.02.2017 12:00 -1,3 C 75 % 1024,6 hPa 0,0 l/m 4,8 km/h N -5,1 C -1,3 C 15,7 km/h
08.02.2017 13:00 -1,2 C 74 % 1024,7 hPa 0,0 l/m 5,0 km/h N -5,2 C -1,2 C 15,3 km/h
08.02.2017 14:00 -1,0 C 73 % 1024,9 hPa 0,0 l/m 3,8 km/h N -5,3 C -1,0 C 13,3 km/h
08.02.2017 15:00 -1,4 C 74 % 1025,2 hPa 0,0 l/m 2,9 km/h N -5,4 C -1,4 C 12,1 km/h
08.02.2017 16:00 -1,7 C 74 % 1025,9 hPa 0,0 l/m 3,4 km/h N -5,7 C -1,7 C 11,7 km/h
08.02.2017 17:00 -2,0 C 73 % 1026,5 hPa 0,0 l/m 4,4 km/h N -6,2 C -2,0 C 15,3 km/h
08.02.2017 18:00 -2,1 C 72 % 1027,1 hPa 0,0 l/m 2,9 km/h N -6,5 C -2,1 C 11,7 km/h
08.02.2017 19:00 -2,1 C 72 % 1027,7 hPa 0,0 l/m 1,5 km/h N -6,5 C -2,1 C 7,2 km/h
08.02.2017 20:00 -2,2 C 74 % 1028,0 hPa 0,0 l/m 0,5 km/h N -6,3 C -2,2 C 6,0 km/h
08.02.2017 21:00 -2,3 C 75 % 1028,3 hPa 0,0 l/m 0,2 km/h N -6,1 C -2,3 C 4,4 km/h
08.02.2017 22:00 -2,4 C 76 % 1028,5 hPa 0,0 l/m 0,6 km/h N -6,1 C -2,4 C 6,0 km/h
08.02.2017 23:00 -2,6 C 76 % 1028,9 hPa 0,0 l/m 0,6 km/h N -6,2 C -2,6 C 6,0 km/h
09.02.2017 00:00 -2,7 C 76 % 1029,3 hPa 0,0 l/m 0,6 km/h N -6,3 C -2,7 C 4,4 km/h
09.02.2017 01:00 -2,8 C 77 % 1029,4 hPa 0,0 l/m 0,5 km/h N -6,2 C -2,8 C 6,0 km/h
09.02.2017 02:00 -2,9 C 78 % 1029,5 hPa 0,0 l/m 0,8 km/h N -6,2 C -2,9 C 6,0 km/h
09.02.2017 03:00 -3,1 C 78 % 1029,4 hPa 0,0 l/m 0,4 km/h N -6,4 C -3,1 C 6,4 km/h
09.02.2017 04:00 -3,1 C 78 % 1029,6 hPa 0,0 l/m 0,1 km/h N -6,3 C -3,1 C 3,6 km/h
09.02.2017 05:00 -3,1 C 79 % 1029,7 hPa 0,0 l/m 0,1 km/h N -6,2 C -3,1 C 1,6 km/h
09.02.2017 06:00 -3,1 C 79 % 1029,7 hPa 0,0 l/m 0,1 km/h N -6,2 C -3,1 C 3,6 km/h
09.02.2017 07:00 -3,1 C 80 % 1030,0 hPa 0,0 l/m 0,1 km/h N -6,0 C -3,1 C 2,0 km/h
09.02.2017 08:00 -3,0 C 81 % 1030,1 hPa 0,0 l/m 0,1 km/h N -5,8 C -3,0 C 3,2 km/h
09.02.2017 09:00 -2,8 C 82 % 1030,1 hPa 0,0 l/m 0,2 km/h N -5,5 C -2,8 C 2,4 km/h
09.02.2017 10:00 -2,3 C 82 % 1030,1 hPa 0,0 l/m 0,0 km/h N -5,0 C -2,3 C 1,2 km/h
09.02.2017 11:00 -1,6 C 81 % 1030,0 hPa 0,0 l/m 0,1 km/h N -4,4 C -1,6 C 4,0 km/h
09.02.2017 12:00 -0,7 C 78 % 1029,5 hPa 0,0 l/m 0,1 km/h N -4,0 C -0,7 C 2,8 km/h
09.02.2017 13:00 0,1 C 76 % 1029,0 hPa 0,0 l/m 0,1 km/h N -3,6 C 0,1 C 2,8 km/h
09.02.2017 14:00 0,4 C 76 % 1028,6 hPa 0,0 l/m 0,0 km/h N -3,3 C 0,4 C 2,0 km/h
09.02.2017 15:00 0,2 C 77 % 1028,8 hPa 0,0 l/m 0,0 km/h N -3,3 C 0,2 C 2,8 km/h
09.02.2017 16:00 -0,2 C 78 % 1028,5 hPa 0,0 l/m 0,0 km/h N -3,6 C -0,2 C 0,8 km/h
09.02.2017 17:00 -0,4 C 80 % 1028,6 hPa 0,0 l/m 0,0 km/h N -3,4 C -0,4 C 1,2 km/h
09.02.2017 18:00 -0,5 C 81 % 1028,8 hPa 0,0 l/m 0,0 km/h N -3,3 C -0,5 C 2,0 km/h
09.02.2017 19:00 -0,4 C 82 % 1028,8 hPa 0,0 l/m 0,1 km/h N -3,1 C -0,4 C 4,0 km/h
09.02.2017 20:00 -0,4 C 82 % 1028,6 hPa 0,0 l/m 0,1 km/h N -3,1 C -0,4 C 2,8 km/h
09.02.2017 21:00 -0,4 C 83 % 1028,6 hPa 0,0 l/m 0,0 km/h N -3,0 C -0,4 C 1,2 km/h
09.02.2017 22:00 -0,5 C 83 % 1028,5 hPa 0,0 l/m 0,0 km/h N -3,0 C -0,5 C 1,6 km/h
09.02.2017 23:00 -0,5 C 83 % 1028,3 hPa 0,0 l/m 0,1 km/h N -3,0 C -0,5 C 2,0 km/h
10.02.2017 00:00 -0,4 C 83 % 1028,0 hPa 0,0 l/m 0,0 km/h N -2,9 C -0,4 C 1,6 km/h
10.02.2017 01:00 -0,2 C 84 % 1027,8 hPa 0,0 l/m 0,1 km/h N -2,6 C -0,2 C 4,0 km/h
10.02.2017 02:00 -0,2 C 84 % 1027,6 hPa 0,0 l/m 0,1 km/h N -2,6 C -0,2 C 4,0 km/h
10.02.2017 03:00 -0,3 C 84 % 1027,1 hPa 0,0 l/m 0,5 km/h N -2,6 C -0,3 C 5,2 km/h
10.02.2017 04:00 -0,3 C 84 % 1026,9 hPa 0,0 l/m 0,8 km/h N -2,7 C -0,3 C 6,4 km/h
10.02.2017 05:00 -0,3 C 84 % 1026,8 hPa 0,0 l/m 0,8 km/h N -2,7 C -0,3 C 7,2 km/h
10.02.2017 06:00 -0,3 C 84 % 1026,9 hPa 0,0 l/m 1,1 km/h N -2,6 C -0,3 C 7,2 km/h
10.02.2017 07:00 -0,2 C 84 % 1027,0 hPa 0,0 l/m 2,4 km/h N -2,6 C -0,2 C 10,5 km/h
10.02.2017 08:00 -0,1 C 84 % 1027,2 hPa 0,0 l/m 3,4 km/h N -2,5 C -0,1 C 10,1 km/h
10.02.2017 09:00 0,1 C 84 % 1027,2 hPa 0,0 l/m 3,6 km/h N -2,3 C 0,1 C 11,7 km/h
10.02.2017 10:00 0,6 C 83 % 1027,0 hPa 0,0 l/m 4,1 km/h N -2,0 C 0,6 C 11,7 km/h
10.02.2017 11:00 1,1 C 80 % 1027,0 hPa 0,0 l/m 3,0 km/h N -1,9 C 1,1 C 12,5 km/h
10.02.2017 12:00 0,9 C 78 % 1026,7 hPa 0,0 l/m 3,4 km/h N -2,4 C 0,9 C 14,1 km/h
10.02.2017 13:00 1,3 C 76 % 1026,3 hPa 0,0 l/m 3,2 km/h N -2,5 C 1,3 C 11,7 km/h
10.02.2017 14:00 1,4 C 72 % 1026,2 hPa 0,0 l/m 3,1 km/h N -3,0 C 1,4 C 14,1 km/h
10.02.2017 15:00 1,8 C 68 % 1026,1 hPa 0,0 l/m 3,1 km/h N -3,6 C 1,8 C 12,9 km/h
10.02.2017 16:00 1,6 C 67 % 1026,0 hPa 0,0 l/m 2,1 km/h N -3,8 C 1,6 C 9,3 km/h
10.02.2017 17:00 1,3 C 69 % 1026,2 hPa 0,0 l/m 1,4 km/h N -3,9 C 1,3 C 8,0 km/h
10.02.2017 18:00 1,0 C 70 % 1026,3 hPa 0,0 l/m 1,6 km/h N -3,8 C 1,0 C 9,6 km/h
10.02.2017 19:00 1,1 C 71 % 1026,3 hPa 0,0 l/m 0,7 km/h N -3,6 C 1,1 C 6,8 km/h
10.02.2017 20:00 0,8 C 72 % 1026,0 hPa 0,0 l/m 1,7 km/h N -3,6 C 0,8 C 10,5 km/h
10.02.2017 21:00 0,3 C 75 % 1025,6 hPa 0,0 l/m 3,3 km/h N -3,6 C 0,3 C 10,5 km/h
10.02.2017 22:00 -0,2 C 77 % 1026,0 hPa 0,0 l/m 2,2 km/h N -3,8 C -0,2 C 9,2 km/h
10.02.2017 23:00 -0,3 C 78 % 1025,9 hPa 0,0 l/m 1,7 km/h N -3,6 C -0,3 C 7,6 km/h
11.02.2017 00:00 -0,4 C 78 % 1025,8 hPa 0,0 l/m 1,9 km/h N -3,8 C -0,4 C 10,1 km/h
11.02.2017 01:00 -0,7 C 79 % 1025,4 hPa 0,0 l/m 1,4 km/h N -3,8 C -0,7 C 7,2 km/h
11.02.2017 02:00 -0,9 C 80 % 1025,3 hPa 0,0 l/m 0,4 km/h N -3,8 C -0,9 C 5,6 km/h
11.02.2017 03:00 -0,6 C 81 % 1024,9 hPa 0,0 l/m 1,1 km/h N -3,5 C -0,6 C 7,6 km/h
11.02.2017 04:00 -0,5 C 81 % 1024,6 hPa 0,0 l/m 2,1 km/h N -3,3 C -0,5 C 8,4 km/h
11.02.2017 05:00 -0,6 C 81 % 1024,7 hPa 0,0 l/m 1,9 km/h N -3,4 C -0,6 C 13,3 km/h
11.02.2017 06:00 -1,0 C 82 % 1025,0 hPa 0,0 l/m 0,8 km/h N -3,7 C -1,0 C 8,9 km/h
11.02.2017 07:00 -1,0 C 83 % 1025,1 hPa 0,0 l/m 0,6 km/h N -3,5 C -1,0 C 5,2 km/h
11.02.2017 08:00 -0,5 C 83 % 1025,2 hPa 0,0 l/m 1,8 km/h N -3,0 C -0,5 C 14,1 km/h
11.02.2017 09:00 0,4 C 83 % 1025,3 hPa 0,0 l/m 2,5 km/h N -2,1 C 0,4 C 10,5 km/h
11.02.2017 10:00 2,5 C 77 % 1025,6 hPa 0,0 l/m 2,6 km/h N -1,1 C 2,5 C 11,3 km/h
11.02.2017 11:00 2,4 C 77 % 1025,6 hPa 0,0 l/m 2,5 km/h N -1,3 C 2,4 C 10,1 km/h
11.02.2017 12:00 3,0 C 77 % 1025,3 hPa 0,0 l/m 1,7 km/h N -0,8 C 3,0 C 11,7 km/h
11.02.2017 13:00 2,8 C 76 % 1025,1 hPa 0,0 l/m 1,8 km/h N -1,0 C 2,8 C 9,3 km/h
11.02.2017 14:00 2,5 C 76 % 1025,1 hPa 0,0 l/m 1,8 km/h N -1,3 C 2,5 C 10,1 km/h
11.02.2017 15:00 2,2 C 77 % 1025,2 hPa 0,0 l/m 1,6 km/h N -1,4 C 2,2 C 10,1 km/h
11.02.2017 16:00 1,7 C 77 % 1025,1 hPa 0,0 l/m 0,7 km/h N -1,9 C 1,7 C 7,2 km/h
11.02.2017 17:00 1,3 C 79 % 1025,3 hPa 0,0 l/m 1,1 km/h N -2,0 C 1,3 C 8,1 km/h
11.02.2017 18:00 1,3 C 79 % 1025,6 hPa 0,0 l/m 1,4 km/h N -2,0 C 1,3 C 8,9 km/h
11.02.2017 19:00 1,1 C 79 % 1025,7 hPa 0,0 l/m 1,0 km/h N -2,1 C 1,1 C 10,1 km/h
11.02.2017 20:00 1,0 C 79 % 1025,8 hPa 0,0 l/m 1,6 km/h N -2,2 C 1,0 C 8,8 km/h
11.02.2017 21:00 0,8 C 79 % 1025,9 hPa 0,0 l/m 0,9 km/h N -2,4 C 0,8 C 10,1 km/h
11.02.2017 22:00 0,8 C 79 % 1026,2 hPa 0,0 l/m 0,6 km/h N -2,4 C 0,8 C 6,0 km/h
11.02.2017 23:00 0,8 C 79 % 1026,3 hPa 0,0 l/m 1,2 km/h N -2,4 C 0,8 C 7,6 km/h
12.02.2017 00:00 0,8 C 80 % 1026,3 hPa 0,0 l/m 0,7 km/h N -2,3 C 0,8 C 6,0 km/h
12.02.2017 01:00 0,5 C 80 % 1026,5 hPa 0,0 l/m 0,4 km/h N -2,5 C 0,5 C 5,2 km/h
12.02.2017 02:00 0,3 C 82 % 1026,8 hPa 0,0 l/m 0,3 km/h N -2,5 C 0,3 C 6,0 km/h
12.02.2017 03:00 0,2 C 82 % 1027,1 hPa 0,0 l/m 0,4 km/h N -2,5 C 0,2 C 6,0 km/h
12.02.2017 04:00 0,1 C 82 % 1027,6 hPa 0,0 l/m 1,0 km/h N -2,6 C 0,1 C 5,6 km/h
12.02.2017 05:00 -0,2 C 82 % 1028,0 hPa 0,0 l/m 0,3 km/h N -2,8 C -0,2 C 4,4 km/h
12.02.2017 06:00 -0,3 C 83 % 1028,5 hPa 0,0 l/m 0,1 km/h N -2,9 C -0,3 C 2,8 km/h
12.02.2017 07:00 -0,3 C 82 % 1029,3 hPa 0,0 l/m 0,2 km/h N -3,0 C -0,3 C 5,2 km/h
12.02.2017 08:00 -0,0 C 82 % 1029,8 hPa 0,0 l/m 0,3 km/h N -2,8 C -0,0 C 5,6 km/h
12.02.2017 09:00 0,4 C 81 % 1030,2 hPa 0,0 l/m 0,6 km/h N -2,4 C 0,4 C 6,8 km/h
12.02.2017 10:00 0,7 C 80 % 1030,7 hPa 0,0 l/m 0,4 km/h N -2,4 C 0,7 C 7,2 km/h
12.02.2017 11:00 1,1 C 80 % 1031,0 hPa 0,0 l/m 0,5 km/h N -1,9 C 1,1 C 8,5 km/h
12.02.2017 12:00 1,8 C 79 % 1031,1 hPa 0,0 l/m 0,7 km/h N -1,6 C 1,8 C 7,2 km/h
12.02.2017 13:00 2,2 C 76 % 1031,1 hPa 0,0 l/m 1,2 km/h N -1,5 C 2,2 C 9,3 km/h
12.02.2017 14:00 2,8 C 75 % 1031,1 hPa 0,0 l/m 0,7 km/h N -1,3 C 2,8 C 6,8 km/h
12.02.2017 15:00 3,2 C 72 % 1031,2 hPa 0,0 l/m 0,6 km/h N -1,3 C 3,2 C 5,6 km/h
12.02.2017 16:00 3,1 C 72 % 1031,3 hPa 0,0 l/m 0,3 km/h N -1,5 C 3,1 C 4,4 km/h
12.02.2017 17:00 2,7 C 71 % 1031,7 hPa 0,0 l/m 0,1 km/h N -2,1 C 2,7 C 2,4 km/h
12.02.2017 18:00 2,3 C 71 % 1032,2 hPa 0,0 l/m 0,0 km/h N -2,4 C 2,3 C 1,2 km/h
12.02.2017 19:00 2,0 C 73 % 1032,6 hPa 0,0 l/m 0,0 km/h N -2,4 C 2,0 C 0,4 km/h
12.02.2017 20:00 1,5 C 76 % 1032,8 hPa 0,0 l/m 0,0 km/h N -2,3 C 1,5 C 1,6 km/h
12.02.2017 21:00 1,3 C 77 % 1033,3 hPa 0,0 l/m 0,0 km/h N -2,3 C 1,3 C 1,6 km/h
12.02.2017 22:00 1,3 C 77 % 1033,4 hPa 0,0 l/m 0,2 km/h N -2,3 C 1,3 C 5,2 km/h
12.02.2017 23:00 0,9 C 78 % 1033,5 hPa 0,0 l/m 0,1 km/h N -2,5 C 0,9 C 1,6 km/h
Min-Datum _ 09.02.17 07.02.17 06.02.17 - 06.02.17 - 08.02.17 09.02.17 06.02.17
_ Min-Zeit 03:15 13:15 00:15 - 00:00 - 18:00 03:15 00:00
Minimum _ -3,1 C 65 % 1004,8 hPa - 0,0 km/h - -6,5 C -3,1 C 0,0 km/h
Max-Datum _ 06.02.17 06.02.17 12.02.17 06.02.17 07.02.17 - 06.02.17 06.02.17 07.02.17
_ Max-Zeit 11:45 00:00 23:30 07:30 14:00 - 11:00 11:30 13:15
Maximum _ 4,3 C 84 % 1033,6 hPa 4,7 l/m 11,3 km/h
N
- 1,6 C 4,2 C 27,4 km/h
N
Durchschnitt _ 0,5 C 79 % 1023,7 hPa #24,7 l/m 1,9 km/h N -2,8 C 0,3 C 8,2 km/h